AOJ74J LEPA-LIRQ
Flight info
| Callsign | AOJ74J |
|---|---|
| Flight time | 1h 15m |
| Altitude | 38000 |
| Route | MORSS DCT BAVON DCT ORKUM DCT ELSAG DCT ALG DCT ROMPO DCT RUXOP DCT BATOX DCT MAMAR DCT AMTEL L995 IBRID |
| Aircraft | C750/M-SBDE3FGHRWXY/S |
Departure
| Time | 2026-05-05 09:49 |
|---|---|
| Airport | Palma de Mallorca Airport (LEPA) |
Arrival
| Time | 2026-05-05 11:04 |
|---|---|
| Airport | Florence Airport, Peretola (LIRQ) |
| Time | Latitude | Longitude | Altitude | Speed | Heading |
|---|---|---|---|---|---|
| 2026-05-05 09:37 | 39.54192 | 2.72740 | 33 ft | 0 kts | 195° |
| 2026-05-05 09:41 | 39.54184 | 2.72737 | 33 ft | 2 kts | 193° |
| 2026-05-05 09:42 | 39.54173 | 2.72747 | 33 ft | 2 kts | 108° |
| 2026-05-05 09:42 | 39.54201 | 2.72807 | 33 ft | 10 kts | 58° |
| 2026-05-05 09:42 | 39.54218 | 2.72878 | 33 ft | 6 kts | 94° |
| 2026-05-05 09:42 | 39.54236 | 2.72948 | 33 ft | 13 kts | 37° |
| 2026-05-05 09:43 | 39.54282 | 2.73039 | 33 ft | 12 kts | 59° |
| 2026-05-05 09:43 | 39.54320 | 2.73126 | 32 ft | 12 kts | 62° |
| 2026-05-05 09:43 | 39.54362 | 2.73228 | 32 ft | 12 kts | 56° |
| 2026-05-05 09:43 | 39.54405 | 2.73312 | 32 ft | 11 kts | 59° |
| 2026-05-05 09:44 | 39.54443 | 2.73394 | 32 ft | 12 kts | 58° |
| 2026-05-05 09:44 | 39.54502 | 2.73521 | 32 ft | 19 kts | 59° |
| 2026-05-05 09:44 | 39.54574 | 2.73669 | 32 ft | 20 kts | 57° |
| 2026-05-05 09:44 | 39.54649 | 2.73830 | 32 ft | 21 kts | 59° |
| 2026-05-05 09:45 | 39.54727 | 2.74000 | 32 ft | 21 kts | 59° |
| 2026-05-05 09:45 | 39.54800 | 2.74125 | 33 ft | 13 kts | 20° |
| 2026-05-05 09:45 | 39.54881 | 2.74083 | 33 ft | 15 kts | 327° |
| 2026-05-05 09:45 | 39.54976 | 2.74006 | 33 ft | 16 kts | 328° |
| 2026-05-05 09:46 | 39.55072 | 2.73931 | 33 ft | 19 kts | 328° |
| 2026-05-05 09:46 | 39.55205 | 2.73828 | 32 ft | 23 kts | 329° |
| 2026-05-05 09:46 | 39.55335 | 2.73726 | 32 ft | 21 kts | 329° |
| 2026-05-05 09:46 | 39.55460 | 2.73626 | 29 ft | 22 kts | 327° |
| 2026-05-05 09:47 | 39.55590 | 2.73521 | 24 ft | 20 kts | 330° |
| 2026-05-05 09:47 | 39.55656 | 2.73501 | 23 ft | 9 kts | 41° |
| 2026-05-05 09:47 | 39.55703 | 2.73512 | 23 ft | 8 kts | 316° |
| 2026-05-05 09:47 | 39.55712 | 2.73380 | 21 ft | 21 kts | 269° |
| 2026-05-05 09:48 | 39.55707 | 2.73186 | 22 ft | 21 kts | 256° |
| 2026-05-05 09:48 | 39.55617 | 2.72980 | 24 ft | 49 kts | 238° |
| 2026-05-05 09:48 | 39.55249 | 2.72212 | 26 ft | 139 kts | 237° |
| 2026-05-05 09:48 | 39.54713 | 2.71144 | 579 ft | 144 kts | 237° |
| 2026-05-05 09:49 | 39.54158 | 2.70025 | 1212 ft | 151 kts | 236° |
| 2026-05-05 09:49 | 39.53587 | 2.68826 | 1841 ft | 161 kts | 236° |
| 2026-05-05 09:49 | 39.52961 | 2.67576 | 2500 ft | 170 kts | 234° |
| 2026-05-05 09:49 | 39.52294 | 2.66270 | 3212 ft | 177 kts | 234° |
| 2026-05-05 09:50 | 39.51545 | 2.64981 | 3914 ft | 183 kts | 219° |
| 2026-05-05 09:50 | 39.50303 | 2.64395 | 4542 ft | 203 kts | 188° |
| 2026-05-05 09:50 | 39.48828 | 2.64739 | 4977 ft | 236 kts | 154° |
| 2026-05-05 09:50 | 39.47631 | 2.66360 | 5357 ft | 270 kts | 118° |
| 2026-05-05 09:51 | 39.47413 | 2.68805 | 6173 ft | 282 kts | 83° |
| 2026-05-05 09:51 | 39.48041 | 2.71227 | 7129 ft | 287 kts | 68° |
| 2026-05-05 09:51 | 39.48844 | 2.73605 | 8135 ft | 290 kts | 69° |
| 2026-05-05 09:51 | 39.49524 | 2.76084 | 9160 ft | 294 kts | 75° |
| 2026-05-05 09:52 | 39.50102 | 2.78617 | 10032 ft | 300 kts | 76° |
| 2026-05-05 09:52 | 39.50740 | 2.81271 | 10430 ft | 321 kts | 74° |
| 2026-05-05 09:52 | 39.51483 | 2.84138 | 10560 ft | 350 kts | 73° |
| 2026-05-05 09:52 | 39.52279 | 2.87230 | 10789 ft | 370 kts | 73° |
| 2026-05-05 09:53 | 39.53071 | 2.90414 | 11545 ft | 373 kts | 73° |
| 2026-05-05 09:53 | 39.53872 | 2.93645 | 12167 ft | 380 kts | 73° |
| 2026-05-05 09:53 | 39.54699 | 2.96934 | 12799 ft | 387 kts | 73° |
| 2026-05-05 09:53 | 39.55537 | 3.00269 | 13438 ft | 393 kts | 73° |
| 2026-05-05 09:54 | 39.56383 | 3.03664 | 14031 ft | 399 kts | 73° |
| 2026-05-05 09:54 | 39.57237 | 3.07101 | 14625 ft | 403 kts | 73° |
| 2026-05-05 09:54 | 39.58102 | 3.10572 | 15216 ft | 407 kts | 73° |
| 2026-05-05 09:54 | 39.58977 | 3.14088 | 15803 ft | 412 kts | 73° |
| 2026-05-05 09:55 | 39.59860 | 3.17648 | 16385 ft | 417 kts | 73° |
| 2026-05-05 09:55 | 39.60752 | 3.21249 | 17015 ft | 422 kts | 73° |
| 2026-05-05 09:55 | 39.61655 | 3.24895 | 17637 ft | 427 kts | 73° |
| 2026-05-05 09:55 | 39.62567 | 3.28587 | 18268 ft | 433 kts | 73° |
| 2026-05-05 09:56 | 39.63489 | 3.32325 | 18849 ft | 437 kts | 73° |
| 2026-05-05 09:56 | 39.64418 | 3.36100 | 19445 ft | 441 kts | 73° |
| 2026-05-05 09:56 | 39.65356 | 3.39917 | 20019 ft | 447 kts | 73° |
| 2026-05-05 09:56 | 39.66305 | 3.43779 | 20631 ft | 452 kts | 73° |
| 2026-05-05 09:57 | 39.67263 | 3.47687 | 21232 ft | 457 kts | 73° |
| 2026-05-05 09:57 | 39.68229 | 3.51635 | 21838 ft | 461 kts | 73° |
| 2026-05-05 09:57 | 39.69191 | 3.55574 | 22423 ft | 466 kts | 73° |
| 2026-05-05 09:57 | 39.70173 | 3.59604 | 23007 ft | 471 kts | 73° |
| 2026-05-05 09:58 | 39.71166 | 3.63680 | 23564 ft | 476 kts | 74° |
| 2026-05-05 09:58 | 39.72166 | 3.67798 | 24052 ft | 480 kts | 74° |
| 2026-05-05 09:58 | 39.73174 | 3.71954 | 24538 ft | 484 kts | 74° |
| 2026-05-05 09:58 | 39.74190 | 3.76146 | 25019 ft | 489 kts | 74° |
| 2026-05-05 09:59 | 39.75213 | 3.80379 | 25516 ft | 493 kts | 74° |
| 2026-05-05 09:59 | 39.76241 | 3.84641 | 26024 ft | 496 kts | 74° |
| 2026-05-05 09:59 | 39.77276 | 3.88934 | 26480 ft | 500 kts | 74° |
| 2026-05-05 09:59 | 39.78317 | 3.93268 | 26942 ft | 504 kts | 74° |
| 2026-05-05 10:00 | 39.79366 | 3.97639 | 27399 ft | 509 kts | 74° |
| 2026-05-05 10:00 | 39.80423 | 4.02052 | 27862 ft | 513 kts | 74° |
| 2026-05-05 10:00 | 39.81487 | 4.06501 | 28319 ft | 518 kts | 74° |
| 2026-05-05 10:00 | 39.82558 | 4.10990 | 28772 ft | 522 kts | 74° |
| 2026-05-05 10:01 | 39.83635 | 4.15516 | 29223 ft | 526 kts | 74° |
| 2026-05-05 10:01 | 39.84721 | 4.20082 | 29675 ft | 530 kts | 74° |
| 2026-05-05 10:01 | 39.85811 | 4.24679 | 30118 ft | 534 kts | 74° |
| 2026-05-05 10:01 | 39.86908 | 4.29312 | 30501 ft | 537 kts | 74° |
| 2026-05-05 10:02 | 39.88009 | 4.33972 | 30890 ft | 540 kts | 74° |
| 2026-05-05 10:02 | 39.89111 | 4.38644 | 31469 ft | 538 kts | 74° |
| 2026-05-05 10:02 | 39.90206 | 4.43297 | 32066 ft | 537 kts | 74° |
| 2026-05-05 10:02 | 39.91297 | 4.47942 | 32633 ft | 536 kts | 74° |
| 2026-05-05 10:03 | 39.92371 | 4.52527 | 33198 ft | 536 kts | 74° |
| 2026-05-05 10:03 | 39.93470 | 4.57227 | 33793 ft | 535 kts | 74° |
| 2026-05-05 10:03 | 39.94537 | 4.61795 | 34364 ft | 533 kts | 74° |
| 2026-05-05 10:03 | 39.95614 | 4.66422 | 34856 ft | 533 kts | 74° |
| 2026-05-05 10:04 | 39.96683 | 4.71041 | 35440 ft | 532 kts | 74° |
| 2026-05-05 10:04 | 39.97734 | 4.75653 | 36012 ft | 530 kts | 75° |
| 2026-05-05 10:04 | 39.98779 | 4.80259 | 36566 ft | 529 kts | 75° |
| 2026-05-05 10:04 | 39.99827 | 4.84846 | 37125 ft | 527 kts | 74° |
| 2026-05-05 10:05 | 40.00875 | 4.89424 | 37683 ft | 526 kts | 74° |
| 2026-05-05 10:05 | 40.01913 | 4.93996 | 38235 ft | 525 kts | 74° |
| 2026-05-05 10:05 | 40.02943 | 4.98554 | 38848 ft | 522 kts | 74° |
| 2026-05-05 10:05 | 40.03968 | 5.03087 | 39339 ft | 521 kts | 74° |
| 2026-05-05 10:06 | 40.04991 | 5.07611 | 39810 ft | 519 kts | 74° |
| 2026-05-05 10:06 | 40.06010 | 5.12130 | 40305 ft | 518 kts | 74° |
| 2026-05-05 10:06 | 40.07023 | 5.16637 | 40791 ft | 516 kts | 74° |
| 2026-05-05 10:06 | 40.08030 | 5.21129 | 41260 ft | 515 kts | 74° |
| 2026-05-05 10:07 | 40.09034 | 5.25610 | 41724 ft | 514 kts | 73° |
| 2026-05-05 10:07 | 40.10034 | 5.30081 | 42195 ft | 512 kts | 73° |
| 2026-05-05 10:07 | 40.11017 | 5.34487 | 42643 ft | 511 kts | 73° |
| 2026-05-05 10:07 | 40.12008 | 5.38941 | 43098 ft | 510 kts | 73° |
| 2026-05-05 10:08 | 40.12996 | 5.43387 | 43574 ft | 509 kts | 73° |
| 2026-05-05 10:08 | 40.13978 | 5.47817 | 44106 ft | 507 kts | 73° |
| 2026-05-05 10:08 | 40.14955 | 5.52232 | 44631 ft | 505 kts | 73° |
| 2026-05-05 10:08 | 40.15928 | 5.56638 | 45041 ft | 504 kts | 73° |
| 2026-05-05 10:09 | 40.16899 | 5.61042 | 45373 ft | 504 kts | 73° |
| 2026-05-05 10:09 | 40.17869 | 5.65454 | 45695 ft | 505 kts | 73° |
| 2026-05-05 10:09 | 40.18836 | 5.69860 | 45991 ft | 504 kts | 73° |
| 2026-05-05 10:09 | 40.19803 | 5.74272 | 46272 ft | 504 kts | 73° |
| 2026-05-05 10:10 | 40.20766 | 5.78674 | 46553 ft | 504 kts | 73° |
| 2026-05-05 10:10 | 40.21728 | 5.83083 | 46811 ft | 504 kts | 73° |
| 2026-05-05 10:10 | 40.22687 | 5.87490 | 47069 ft | 504 kts | 73° |
| 2026-05-05 10:10 | 40.23645 | 5.91900 | 47312 ft | 504 kts | 74° |
| 2026-05-05 10:11 | 40.24602 | 5.96310 | 47552 ft | 504 kts | 74° |
| 2026-05-05 10:11 | 40.25556 | 6.00721 | 47778 ft | 504 kts | 74° |
| 2026-05-05 10:11 | 40.26510 | 6.05135 | 47995 ft | 504 kts | 74° |
| 2026-05-05 10:11 | 40.27467 | 6.09575 | 47986 ft | 509 kts | 73° |
| 2026-05-05 10:12 | 40.29405 | 6.18590 | 48007 ft | 519 kts | 74° |
| 2026-05-05 10:12 | 40.31372 | 6.27775 | 48008 ft | 529 kts | 74° |
| 2026-05-05 10:13 | 40.33351 | 6.37064 | 48011 ft | 537 kts | 74° |
| 2026-05-05 10:13 | 40.35367 | 6.46556 | 48012 ft | 542 kts | 74° |
| 2026-05-05 10:14 | 40.37368 | 6.56035 | 47999 ft | 539 kts | 74° |
| 2026-05-05 10:14 | 40.39036 | 6.63962 | 48004 ft | 546 kts | 74° |
| 2026-05-05 10:15 | 40.41062 | 6.73632 | 48018 ft | 554 kts | 74° |
| 2026-05-05 10:15 | 40.43105 | 6.83417 | 48021 ft | 557 kts | 74° |
| 2026-05-05 10:16 | 40.45141 | 6.93225 | 48003 ft | 557 kts | 74° |
| 2026-05-05 10:16 | 40.47170 | 7.03049 | 48009 ft | 557 kts | 74° |
| 2026-05-05 10:17 | 40.49196 | 7.12902 | 48009 ft | 561 kts | 74° |
| 2026-05-05 10:17 | 40.51232 | 7.22854 | 48022 ft | 567 kts | 74° |
| 2026-05-05 10:18 | 40.53273 | 7.32864 | 48019 ft | 567 kts | 74° |
| 2026-05-05 10:18 | 40.55289 | 7.42814 | 48020 ft | 567 kts | 74° |
| 2026-05-05 10:19 | 40.56886 | 7.52960 | 48020 ft | 567 kts | 83° |
| 2026-05-05 10:19 | 40.57644 | 7.63288 | 48027 ft | 567 kts | 84° |
| 2026-05-05 10:20 | 40.58616 | 7.73583 | 48020 ft | 567 kts | 83° |
| 2026-05-05 10:20 | 40.59442 | 7.83908 | 48026 ft | 567 kts | 84° |
| 2026-05-05 10:21 | 40.60336 | 7.94220 | 48033 ft | 567 kts | 83° |
| 2026-05-05 10:21 | 40.61181 | 8.04528 | 48023 ft | 566 kts | 84° |
| 2026-05-05 10:22 | 40.62037 | 8.14830 | 48036 ft | 566 kts | 83° |
| 2026-05-05 10:22 | 40.63168 | 8.25037 | 48008 ft | 561 kts | 75° |
| 2026-05-05 10:23 | 40.65883 | 8.34555 | 48005 ft | 560 kts | 64° |
| 2026-05-05 10:23 | 40.69091 | 8.43888 | 48044 ft | 560 kts | 66° |
| 2026-05-05 10:24 | 40.71906 | 8.53462 | 48029 ft | 560 kts | 66° |
| 2026-05-05 10:24 | 40.74995 | 8.62884 | 48040 ft | 560 kts | 66° |
| 2026-05-05 10:25 | 40.77883 | 8.72431 | 48021 ft | 560 kts | 66° |
| 2026-05-05 10:25 | 40.80879 | 8.81883 | 48028 ft | 558 kts | 66° |
| 2026-05-05 10:26 | 40.83790 | 8.91378 | 48028 ft | 558 kts | 66° |
| 2026-05-05 10:26 | 40.86735 | 9.00862 | 48034 ft | 558 kts | 66° |
| 2026-05-05 10:27 | 40.89653 | 9.10368 | 48019 ft | 558 kts | 67° |
| 2026-05-05 10:27 | 40.92535 | 9.19769 | 48021 ft | 555 kts | 66° |
| 2026-05-05 10:28 | 40.95436 | 9.29249 | 48020 ft | 556 kts | 67° |
| 2026-05-05 10:28 | 40.98325 | 9.38752 | 47999 ft | 558 kts | 67° |
| 2026-05-05 10:29 | 41.01217 | 9.48271 | 47993 ft | 557 kts | 67° |
| 2026-05-05 10:29 | 41.04102 | 9.57826 | 48002 ft | 559 kts | 67° |
| 2026-05-05 10:30 | 41.06984 | 9.67387 | 48005 ft | 559 kts | 67° |
| 2026-05-05 10:30 | 41.09855 | 9.76959 | 48014 ft | 559 kts | 67° |
| 2026-05-05 10:31 | 41.12693 | 9.86553 | 48016 ft | 558 kts | 68° |
| 2026-05-05 10:31 | 41.15510 | 9.96147 | 48032 ft | 558 kts | 68° |
| 2026-05-05 10:32 | 41.18338 | 10.05745 | 48028 ft | 558 kts | 68° |
| 2026-05-05 10:32 | 41.21390 | 10.15134 | 48012 ft | 557 kts | 59° |
| 2026-05-05 10:33 | 41.25941 | 10.23375 | 48031 ft | 551 kts | 46° |
| 2026-05-05 10:33 | 41.31126 | 10.30882 | 48030 ft | 552 kts | 47° |
| 2026-05-05 10:34 | 41.35940 | 10.38835 | 48027 ft | 551 kts | 49° |
| 2026-05-05 10:34 | 41.40949 | 10.46554 | 48033 ft | 551 kts | 47° |
| 2026-05-05 10:35 | 41.45846 | 10.54419 | 48033 ft | 552 kts | 49° |
| 2026-05-05 10:35 | 41.50774 | 10.62221 | 48034 ft | 546 kts | 47° |
| 2026-05-05 10:36 | 41.55642 | 10.69983 | 48023 ft | 546 kts | 49° |
| 2026-05-05 10:36 | 41.60512 | 10.77784 | 48030 ft | 547 kts | 48° |
| 2026-05-05 10:37 | 41.65360 | 10.85524 | 48030 ft | 547 kts | 49° |
| 2026-05-05 10:37 | 41.70215 | 10.93363 | 48019 ft | 549 kts | 49° |
| 2026-05-05 10:38 | 41.75107 | 11.01210 | 48022 ft | 549 kts | 49° |
| 2026-05-05 10:38 | 41.80542 | 11.08234 | 47467 ft | 536 kts | 34° |
| 2026-05-05 10:39 | 41.83647 | 11.10891 | 46776 ft | 524 kts | 26° |
| 2026-05-05 10:39 | 41.86928 | 11.12886 | 46130 ft | 512 kts | 17° |
| 2026-05-05 10:39 | 41.90304 | 11.14202 | 45466 ft | 499 kts | 9° |
| 2026-05-05 10:39 | 41.93683 | 11.15048 | 44818 ft | 489 kts | 5° |
| 2026-05-05 10:40 | 41.97020 | 11.15745 | 44147 ft | 481 kts | 5° |
| 2026-05-05 10:40 | 42.00281 | 11.16565 | 43518 ft | 474 kts | 9° |
| 2026-05-05 10:40 | 42.03440 | 11.17738 | 42910 ft | 468 kts | 13° |
| 2026-05-05 10:40 | 42.06526 | 11.19056 | 42304 ft | 464 kts | 13° |
| 2026-05-05 10:41 | 42.09629 | 11.20219 | 41700 ft | 462 kts | 9° |
| 2026-05-05 10:41 | 42.12753 | 11.21205 | 41097 ft | 463 kts | 8° |
| 2026-05-05 10:41 | 42.15891 | 11.22262 | 40487 ft | 466 kts | 10° |
| 2026-05-05 10:41 | 42.19022 | 11.23447 | 39872 ft | 468 kts | 11° |
| 2026-05-05 10:42 | 42.25322 | 11.25717 | 38622 ft | 468 kts | 9° |
| 2026-05-05 10:42 | 42.28432 | 11.26793 | 37969 ft | 467 kts | 9° |
| 2026-05-05 10:42 | 42.31582 | 11.27933 | 37354 ft | 471 kts | 10° |
| 2026-05-05 10:43 | 42.34758 | 11.29095 | 36730 ft | 474 kts | 9° |
| 2026-05-05 10:43 | 42.37956 | 11.30240 | 36102 ft | 477 kts | 9° |
| 2026-05-05 10:43 | 42.41172 | 11.31382 | 35474 ft | 481 kts | 9° |
| 2026-05-05 10:43 | 42.44436 | 11.32551 | 34837 ft | 487 kts | 9° |
| 2026-05-05 10:44 | 42.47711 | 11.33741 | 34196 ft | 487 kts | 9° |
| 2026-05-05 10:44 | 42.50983 | 11.34929 | 33564 ft | 487 kts | 9° |
| 2026-05-05 10:44 | 42.54262 | 11.36108 | 32919 ft | 488 kts | 9° |
| 2026-05-05 10:44 | 42.57546 | 11.37288 | 32279 ft | 489 kts | 9° |
| 2026-05-05 10:45 | 42.60834 | 11.38478 | 31634 ft | 489 kts | 9° |
| 2026-05-05 10:45 | 42.64128 | 11.39676 | 30982 ft | 490 kts | 9° |
| 2026-05-05 10:45 | 42.67426 | 11.40871 | 30339 ft | 490 kts | 10° |
| 2026-05-05 10:45 | 42.70690 | 11.42058 | 29643 ft | 482 kts | 10° |
| 2026-05-05 10:46 | 42.73911 | 11.43229 | 29018 ft | 477 kts | 10° |
| 2026-05-05 10:46 | 42.77105 | 11.44388 | 28394 ft | 473 kts | 10° |
| 2026-05-05 10:46 | 42.80270 | 11.45539 | 27772 ft | 469 kts | 10° |
| 2026-05-05 10:46 | 42.83407 | 11.46684 | 27166 ft | 465 kts | 10° |
| 2026-05-05 10:47 | 42.86515 | 11.47819 | 26558 ft | 460 kts | 11° |
| 2026-05-05 10:47 | 42.89589 | 11.48941 | 25953 ft | 456 kts | 11° |
| 2026-05-05 10:47 | 42.92644 | 11.50057 | 25354 ft | 453 kts | 11° |
| 2026-05-05 10:47 | 42.95672 | 11.51165 | 24759 ft | 449 kts | 11° |
| 2026-05-05 10:48 | 42.98675 | 11.52266 | 24174 ft | 445 kts | 11° |
| 2026-05-05 10:48 | 43.01655 | 11.53359 | 23579 ft | 442 kts | 11° |
| 2026-05-05 10:48 | 43.04610 | 11.54443 | 22963 ft | 438 kts | 11° |
| 2026-05-05 10:48 | 43.07542 | 11.55520 | 22389 ft | 436 kts | 11° |
| 2026-05-05 10:49 | 43.10460 | 11.56594 | 21809 ft | 432 kts | 12° |
| 2026-05-05 10:49 | 43.13354 | 11.57660 | 21243 ft | 430 kts | 12° |
| 2026-05-05 10:49 | 43.16228 | 11.58719 | 20676 ft | 426 kts | 12° |
| 2026-05-05 10:49 | 43.19046 | 11.59707 | 20113 ft | 420 kts | 8° |
| 2026-05-05 10:50 | 43.21921 | 11.59836 | 19547 ft | 409 kts | 349° |
| 2026-05-05 10:50 | 43.24630 | 11.58869 | 19025 ft | 398 kts | 333° |
| 2026-05-05 10:50 | 43.27084 | 11.57152 | 18529 ft | 394 kts | 327° |
| 2026-05-05 10:50 | 43.29481 | 11.55357 | 17969 ft | 391 kts | 327° |
| 2026-05-05 10:51 | 43.31859 | 11.53581 | 17449 ft | 388 kts | 327° |
| 2026-05-05 10:51 | 43.34227 | 11.51834 | 16935 ft | 385 kts | 327° |
| 2026-05-05 10:51 | 43.36576 | 11.50100 | 16430 ft | 382 kts | 327° |
| 2026-05-05 10:51 | 43.38904 | 11.48366 | 15927 ft | 379 kts | 327° |
| 2026-05-05 10:52 | 43.41210 | 11.46646 | 15429 ft | 376 kts | 327° |
| 2026-05-05 10:52 | 43.43503 | 11.44942 | 14919 ft | 373 kts | 327° |
| 2026-05-05 10:52 | 43.45772 | 11.43252 | 14449 ft | 370 kts | 326° |
| 2026-05-05 10:52 | 43.47910 | 11.41401 | 13937 ft | 349 kts | 315° |
| 2026-05-05 10:53 | 43.49517 | 11.39067 | 13309 ft | 326 kts | 306° |
| 2026-05-05 10:53 | 43.50969 | 11.36772 | 12760 ft | 310 kts | 306° |
| 2026-05-05 10:53 | 43.52378 | 11.34604 | 12249 ft | 297 kts | 307° |
| 2026-05-05 10:53 | 43.53735 | 11.32507 | 11760 ft | 290 kts | 306° |
| 2026-05-05 10:54 | 43.55058 | 11.30432 | 11267 ft | 286 kts | 307° |
| 2026-05-05 10:54 | 43.56366 | 11.28379 | 10785 ft | 284 kts | 306° |
| 2026-05-05 10:54 | 43.57664 | 11.26346 | 10304 ft | 281 kts | 306° |
| 2026-05-05 10:54 | 43.58956 | 11.24328 | 9825 ft | 280 kts | 307° |
| 2026-05-05 10:55 | 43.60229 | 11.22340 | 9326 ft | 272 kts | 307° |
| 2026-05-05 10:55 | 43.61460 | 11.20420 | 8880 ft | 263 kts | 307° |
| 2026-05-05 10:55 | 43.62499 | 11.18420 | 8403 ft | 251 kts | 291° |
| 2026-05-05 10:55 | 43.62906 | 11.16155 | 8010 ft | 239 kts | 271° |
| 2026-05-05 10:56 | 43.62717 | 11.13986 | 7978 ft | 219 kts | 254° |
| 2026-05-05 10:56 | 43.62067 | 11.12081 | 7592 ft | 221 kts | 236° |
| 2026-05-05 10:56 | 43.61078 | 11.10521 | 7221 ft | 214 kts | 229° |
| 2026-05-05 10:56 | 43.60081 | 11.09008 | 6863 ft | 212 kts | 229° |
| 2026-05-05 10:57 | 43.59099 | 11.07498 | 6527 ft | 211 kts | 229° |
| 2026-05-05 10:57 | 43.58137 | 11.05996 | 6111 ft | 205 kts | 230° |
| 2026-05-05 10:57 | 43.57164 | 11.04515 | 5712 ft | 209 kts | 229° |
| 2026-05-05 10:57 | 43.56276 | 11.02980 | 5280 ft | 209 kts | 243° |
| 2026-05-05 10:58 | 43.56186 | 11.01000 | 4751 ft | 215 kts | 284° |
| 2026-05-05 10:58 | 43.57093 | 10.99381 | 4221 ft | 219 kts | 316° |
| 2026-05-05 10:58 | 43.58318 | 10.98147 | 4022 ft | 214 kts | 320° |
| 2026-05-05 10:58 | 43.59544 | 10.96913 | 4014 ft | 219 kts | 320° |
| 2026-05-05 10:59 | 43.60853 | 10.95814 | 3952 ft | 227 kts | 338° |
| 2026-05-05 10:59 | 43.62424 | 10.95879 | 3950 ft | 231 kts | 11° |
| 2026-05-05 10:59 | 43.63992 | 10.96506 | 4004 ft | 235 kts | 14° |
| 2026-05-05 10:59 | 43.65512 | 10.97340 | 3797 ft | 238 kts | 28° |
| 2026-05-05 11:00 | 43.66850 | 10.98670 | 3576 ft | 238 kts | 41° |
| 2026-05-05 11:00 | 43.67962 | 11.00345 | 3507 ft | 236 kts | 49° |
| 2026-05-05 11:00 | 43.69049 | 11.02057 | 3461 ft | 236 kts | 48° |
| 2026-05-05 11:00 | 43.70154 | 11.03768 | 3167 ft | 241 kts | 48° |
| 2026-05-05 11:01 | 43.71264 | 11.05482 | 2851 ft | 232 kts | 48° |
| 2026-05-05 11:01 | 43.72297 | 11.07081 | 2540 ft | 214 kts | 48° |
| 2026-05-05 11:01 | 43.73261 | 11.08561 | 2241 ft | 194 kts | 48° |
| 2026-05-05 11:01 | 43.74128 | 11.09896 | 2001 ft | 186 kts | 48° |
| 2026-05-05 11:02 | 43.74992 | 11.11229 | 1767 ft | 182 kts | 48° |
| 2026-05-05 11:02 | 43.75823 | 11.12512 | 1497 ft | 172 kts | 48° |
| 2026-05-05 11:02 | 43.76562 | 11.13654 | 1270 ft | 145 kts | 48° |
| 2026-05-05 11:02 | 43.77188 | 11.14622 | 1117 ft | 133 kts | 49° |
| 2026-05-05 11:03 | 43.77801 | 11.15561 | 952 ft | 127 kts | 49° |
| 2026-05-05 11:03 | 43.78373 | 11.16446 | 789 ft | 123 kts | 50° |
| 2026-05-05 11:03 | 43.78946 | 11.17333 | 635 ft | 123 kts | 49° |
| 2026-05-05 11:03 | 43.79507 | 11.18183 | 523 ft | 116 kts | 50° |
| 2026-05-05 11:04 | 43.80041 | 11.19026 | 359 ft | 113 kts | 50° |
| 2026-05-05 11:04 | 43.80574 | 11.19852 | 165 ft | 117 kts | 49° |
| 2026-05-05 11:04 | 43.81072 | 11.20618 | 133 ft | 88 kts | 48° |
| 2026-05-05 11:04 | 43.81260 | 11.20917 | 142 ft | 20 kts | 69° |
| 2026-05-05 11:05 | 43.81261 | 11.21091 | 145 ft | 17 kts | 94° |
| 2026-05-05 11:05 | 43.81274 | 11.21239 | 146 ft | 15 kts | 54° |
| 2026-05-05 11:05 | 43.81335 | 11.21337 | 147 ft | 13 kts | 49° |
| 2026-05-05 11:05 | 43.81406 | 11.21383 | 147 ft | 11 kts | 347° |
| 2026-05-05 11:06 | 43.81485 | 11.21348 | 145 ft | 13 kts | 334° |
| 2026-05-05 11:06 | 43.81483 | 11.21252 | 144 ft | 14 kts | 229° |
| 2026-05-05 11:06 | 43.81373 | 11.21080 | 143 ft | 32 kts | 228° |
| 2026-05-05 11:06 | 43.81227 | 11.20855 | 139 ft | 32 kts | 228° |
| 2026-05-05 11:07 | 43.81068 | 11.20611 | 132 ft | 38 kts | 228° |
| 2026-05-05 11:07 | 43.80873 | 11.20306 | 130 ft | 45 kts | 227° |
| 2026-05-05 11:07 | 43.80673 | 11.19997 | 126 ft | 37 kts | 229° |
| 2026-05-05 11:07 | 43.80573 | 11.19839 | 125 ft | 14 kts | 230° |
| 2026-05-05 11:08 | 43.80564 | 11.19741 | 121 ft | 7 kts | 327° |
| 2026-05-05 11:08 | 43.80615 | 11.19703 | 123 ft | 12 kts | 322° |
| 2026-05-05 11:08 | 43.80676 | 11.19630 | 123 ft | 11 kts | 320° |
| 2026-05-05 11:08 | 43.80722 | 11.19597 | 123 ft | 4 kts | 22° |
| 2026-05-05 11:09 | 43.80755 | 11.19652 | 122 ft | 10 kts | 52° |
| 2026-05-05 11:09 | 43.80783 | 11.19692 | 126 ft | 3 kts | 30° |
| 2026-05-05 11:09 | 43.80818 | 11.19691 | 126 ft | 4 kts | 349° |
| 2026-05-05 11:09 | 43.80824 | 11.19677 | 124 ft | 1 kts | 275° |
| 2026-05-05 11:10 | 43.80819 | 11.19662 | 126 ft | 2 kts | 232° |
| 2026-05-05 11:10 | 43.80817 | 11.19661 | 126 ft | 0 kts | 225° |